sensor_id;sensor_type;location;lat;lon;timestamp;P1;durP1;ratioP1;P2;durP2;ratioP2
7074;SDS011;3578;51.568;6.932;2022-12-20T00:01:30;2.90;;;2.60;;
7074;SDS011;3578;51.568;6.932;2022-12-20T00:04:00;3.13;;;2.83;;
7074;SDS011;3578;51.568;6.932;2022-12-20T00:06:30;3.40;;;2.50;;
7074;SDS011;3578;51.568;6.932;2022-12-20T00:09:00;2.80;;;2.60;;
7074;SDS011;3578;51.568;6.932;2022-12-20T00:11:31;2.90;;;2.80;;
7074;SDS011;3578;51.568;6.932;2022-12-20T00:13:58;2.70;;;2.27;;
7074;SDS011;3578;51.568;6.932;2022-12-20T00:16:25;3.70;;;2.47;;
7074;SDS011;3578;51.568;6.932;2022-12-20T00:18:56;2.47;;;2.27;;
7074;SDS011;3578;51.568;6.932;2022-12-20T00:21:26;2.83;;;2.57;;
7074;SDS011;3578;51.568;6.932;2022-12-20T00:23:54;2.70;;;2.60;;
7074;SDS011;3578;51.568;6.932;2022-12-20T00:26:23;4.57;;;2.80;;
7074;SDS011;3578;51.568;6.932;2022-12-20T00:28:54;2.70;;;2.47;;
7074;SDS011;3578;51.568;6.932;2022-12-20T00:31:24;2.90;;;2.30;;
7074;SDS011;3578;51.568;6.932;2022-12-20T00:33:54;2.53;;;2.33;;
7074;SDS011;3578;51.568;6.932;2022-12-20T00:36:24;2.47;;;2.20;;
7074;SDS011;3578;51.568;6.932;2022-12-20T00:38:54;2.23;;;2.13;;
7074;SDS011;3578;51.568;6.932;2022-12-20T00:41:23;2.83;;;2.60;;
7074;SDS011;3578;51.568;6.932;2022-12-20T00:43:52;3.03;;;2.27;;
7074;SDS011;3578;51.568;6.932;2022-12-20T00:46:20;4.03;;;2.53;;
7074;SDS011;3578;51.568;6.932;2022-12-20T00:48:48;4.30;;;2.10;;
7074;SDS011;3578;51.568;6.932;2022-12-20T00:51:18;2.63;;;2.53;;
7074;SDS011;3578;51.568;6.932;2022-12-20T00:53:50;3.20;;;2.60;;
7074;SDS011;3578;51.568;6.932;2022-12-20T00:56:18;2.30;;;2.20;;
7074;SDS011;3578;51.568;6.932;2022-12-20T00:58:46;4.17;;;2.80;;
7074;SDS011;3578;51.568;6.932;2022-12-20T01:01:15;5.13;;;2.23;;
7074;SDS011;3578;51.568;6.932;2022-12-20T01:03:46;2.17;;;2.07;;
7074;SDS011;3578;51.568;6.932;2022-12-20T01:06:13;4.27;;;2.50;;
7074;SDS011;3578;51.568;6.932;2022-12-20T01:08:42;4.03;;;2.47;;
7074;SDS011;3578;51.568;6.932;2022-12-20T01:11:10;2.27;;;2.17;;
7074;SDS011;3578;51.568;6.932;2022-12-20T01:13:40;2.20;;;2.10;;
7074;SDS011;3578;51.568;6.932;2022-12-20T01:16:11;3.07;;;2.40;;
7074;SDS011;3578;51.568;6.932;2022-12-20T01:18:40;2.63;;;1.87;;
7074;SDS011;3578;51.568;6.932;2022-12-20T01:21:08;2.40;;;2.20;;
7074;SDS011;3578;51.568;6.932;2022-12-20T01:23:38;2.97;;;2.63;;
7074;SDS011;3578;51.568;6.932;2022-12-20T01:26:09;3.23;;;2.33;;
7074;SDS011;3578;51.568;6.932;2022-12-20T01:28:39;2.40;;;2.20;;
7074;SDS011;3578;51.568;6.932;2022-12-20T01:31:09;2.10;;;2.00;;
7074;SDS011;3578;51.568;6.932;2022-12-20T01:33:38;2.13;;;1.93;;
7074;SDS011;3578;51.568;6.932;2022-12-20T01:36:06;2.27;;;2.17;;
7074;SDS011;3578;51.568;6.932;2022-12-20T01:38:37;3.37;;;2.63;;
7074;SDS011;3578;51.568;6.932;2022-12-20T01:41:05;2.37;;;2.17;;
7074;SDS011;3578;51.568;6.932;2022-12-20T01:43:47;6.07;;;1.90;;
7074;SDS011;3578;51.568;6.932;2022-12-20T01:46:17;2.90;;;2.50;;
7074;SDS011;3578;51.568;6.932;2022-12-20T01:48:47;2.43;;;2.30;;
7074;SDS011;3578;51.568;6.932;2022-12-20T01:51:17;2.00;;;1.90;;
7074;SDS011;3578;51.568;6.932;2022-12-20T01:53:46;2.43;;;2.33;;
7074;SDS011;3578;51.568;6.932;2022-12-20T01:56:18;2.30;;;2.20;;
7074;SDS011;3578;51.568;6.932;2022-12-20T01:58:45;2.10;;;2.00;;
7074;SDS011;3578;51.568;6.932;2022-12-20T02:01:13;2.97;;;2.77;;
7074;SDS011;3578;51.568;6.932;2022-12-20T02:03:40;2.67;;;2.17;;
7074;SDS011;3578;51.568;6.932;2022-12-20T02:06:12;3.47;;;2.40;;
7074;SDS011;3578;51.568;6.932;2022-12-20T02:08:43;2.60;;;2.40;;
7074;SDS011;3578;51.568;6.932;2022-12-20T02:14:31;1.93;;;1.83;;
7074;SDS011;3578;51.568;6.932;2022-12-20T02:17:18;1.93;;;1.80;;
7074;SDS011;3578;51.568;6.932;2022-12-20T02:20:05;2.50;;;2.10;;
7074;SDS011;3578;51.568;6.932;2022-12-20T02:23:15;2.20;;;2.03;;
7074;SDS011;3578;51.568;6.932;2022-12-20T02:26:32;2.47;;;2.37;;
7074;SDS011;3578;51.568;6.932;2022-12-20T02:29:32;2.20;;;2.10;;
7074;SDS011;3578;51.568;6.932;2022-12-20T02:32:07;2.87;;;2.40;;
7074;SDS011;3578;51.568;6.932;2022-12-20T02:34:42;2.87;;;2.67;;
7074;SDS011;3578;51.568;6.932;2022-12-20T02:37:11;2.20;;;2.00;;
7074;SDS011;3578;51.568;6.932;2022-12-20T02:39:39;2.50;;;2.20;;
7074;SDS011;3578;51.568;6.932;2022-12-20T02:42:10;4.93;;;2.20;;
7074;SDS011;3578;51.568;6.932;2022-12-20T02:44:40;3.60;;;2.40;;
7074;SDS011;3578;51.568;6.932;2022-12-20T02:47:34;2.60;;;2.40;;
7074;SDS011;3578;51.568;6.932;2022-12-20T02:50:06;2.33;;;2.23;;
7074;SDS011;3578;51.568;6.932;2022-12-20T02:52:35;4.83;;;3.00;;
7074;SDS011;3578;51.568;6.932;2022-12-20T02:55:03;3.47;;;2.20;;
7074;SDS011;3578;51.568;6.932;2022-12-20T02:57:32;2.80;;;2.60;;
7074;SDS011;3578;51.568;6.932;2022-12-20T03:00:08;2.70;;;2.60;;
7074;SDS011;3578;51.568;6.932;2022-12-20T03:02:40;2.80;;;2.60;;
7074;SDS011;3578;51.568;6.932;2022-12-20T03:05:27;2.70;;;2.50;;
7074;SDS011;3578;51.568;6.932;2022-12-20T03:07:55;3.17;;;2.70;;
7074;SDS011;3578;51.568;6.932;2022-12-20T03:10:22;2.90;;;2.70;;
7074;SDS011;3578;51.568;6.932;2022-12-20T03:12:49;3.70;;;3.40;;
7074;SDS011;3578;51.568;6.932;2022-12-20T03:15:16;3.83;;;3.13;;
7074;SDS011;3578;51.568;6.932;2022-12-20T03:17:45;6.73;;;3.37;;
7074;SDS011;3578;51.568;6.932;2022-12-20T03:20:12;4.73;;;3.33;;
7074;SDS011;3578;51.568;6.932;2022-12-20T03:22:39;3.23;;;2.80;;
7074;SDS011;3578;51.568;6.932;2022-12-20T03:25:07;6.53;;;3.63;;
7074;SDS011;3578;51.568;6.932;2022-12-20T03:27:34;3.90;;;3.60;;
7074;SDS011;3578;51.568;6.932;2022-12-20T03:30:02;3.37;;;3.00;;
7074;SDS011;3578;51.568;6.932;2022-12-20T03:32:30;4.03;;;3.63;;
7074;SDS011;3578;51.568;6.932;2022-12-20T03:34:59;5.13;;;3.90;;
7074;SDS011;3578;51.568;6.932;2022-12-20T03:37:26;3.93;;;3.63;;
7074;SDS011;3578;51.568;6.932;2022-12-20T03:39:53;6.47;;;3.93;;
7074;SDS011;3578;51.568;6.932;2022-12-20T03:42:20;3.43;;;3.13;;
7074;SDS011;3578;51.568;6.932;2022-12-20T03:44:47;4.73;;;3.97;;
7074;SDS011;3578;51.568;6.932;2022-12-20T03:47:14;6.80;;;4.10;;
7074;SDS011;3578;51.568;6.932;2022-12-20T03:49:41;5.63;;;3.67;;
7074;SDS011;3578;51.568;6.932;2022-12-20T03:52:09;4.17;;;3.77;;
7074;SDS011;3578;51.568;6.932;2022-12-20T03:54:37;4.53;;;4.20;;
7074;SDS011;3578;51.568;6.932;2022-12-20T03:57:04;4.73;;;4.20;;
7074;SDS011;3578;51.568;6.932;2022-12-20T03:59:32;7.30;;;3.77;;
7074;SDS011;3578;51.568;6.932;2022-12-20T04:01:59;5.03;;;4.03;;
7074;SDS011;3578;51.568;6.932;2022-12-20T04:04:26;4.47;;;4.07;;
7074;SDS011;3578;51.568;6.932;2022-12-20T04:06:54;4.20;;;3.80;;
7074;SDS011;3578;51.568;6.932;2022-12-20T04:09:22;3.97;;;3.67;;
7074;SDS011;3578;51.568;6.932;2022-12-20T04:11:49;6.50;;;3.77;;
7074;SDS011;3578;51.568;6.932;2022-12-20T04:14:16;4.60;;;4.20;;
7074;SDS011;3578;51.568;6.932;2022-12-20T04:16:43;4.23;;;3.83;;
7074;SDS011;3578;51.568;6.932;2022-12-20T04:19:10;4.87;;;4.17;;
7074;SDS011;3578;51.568;6.932;2022-12-20T04:21:37;5.33;;;4.47;;
7074;SDS011;3578;51.568;6.932;2022-12-20T04:24:04;5.37;;;4.30;;
7074;SDS011;3578;51.568;6.932;2022-12-20T04:26:33;5.67;;;4.30;;
7074;SDS011;3578;51.568;6.932;2022-12-20T04:29:00;7.70;;;4.60;;
7074;SDS011;3578;51.568;6.932;2022-12-20T04:31:27;8.67;;;4.60;;
7074;SDS011;3578;51.568;6.932;2022-12-20T04:33:54;8.50;;;4.70;;
7074;SDS011;3578;51.568;6.932;2022-12-20T04:36:21;8.63;;;4.30;;
7074;SDS011;3578;51.568;6.932;2022-12-20T04:38:48;5.00;;;4.50;;
7074;SDS011;3578;51.568;6.932;2022-12-20T04:41:15;6.70;;;4.20;;
7074;SDS011;3578;51.568;6.932;2022-12-20T04:43:49;4.47;;;4.07;;
7074;SDS011;3578;51.568;6.932;2022-12-20T04:46:16;4.73;;;4.00;;
7074;SDS011;3578;51.568;6.932;2022-12-20T04:48:44;8.80;;;3.73;;
7074;SDS011;3578;51.568;6.932;2022-12-20T04:51:11;3.97;;;3.50;;
7074;SDS011;3578;51.568;6.932;2022-12-20T04:53:38;9.50;;;3.97;;
7074;SDS011;3578;51.568;6.932;2022-12-20T04:56:13;4.10;;;3.80;;
7074;SDS011;3578;51.568;6.932;2022-12-20T04:58:43;5.97;;;4.30;;
7074;SDS011;3578;51.568;6.932;2022-12-20T05:01:12;5.00;;;4.57;;
7074;SDS011;3578;51.568;6.932;2022-12-20T05:03:39;5.43;;;4.20;;
7074;SDS011;3578;51.568;6.932;2022-12-20T05:06:07;7.70;;;3.93;;
7074;SDS011;3578;51.568;6.932;2022-12-20T05:08:35;6.40;;;4.63;;
7074;SDS011;3578;51.568;6.932;2022-12-20T05:11:02;9.80;;;4.00;;
7074;SDS011;3578;51.568;6.932;2022-12-20T05:13:29;4.40;;;4.00;;
7074;SDS011;3578;51.568;6.932;2022-12-20T05:15:57;10.00;;;4.57;;
7074;SDS011;3578;51.568;6.932;2022-12-20T05:18:25;4.63;;;4.33;;
7074;SDS011;3578;51.568;6.932;2022-12-20T05:20:53;5.23;;;3.97;;
7074;SDS011;3578;51.568;6.932;2022-12-20T05:23:39;4.70;;;4.30;;
7074;SDS011;3578;51.568;6.932;2022-12-20T05:26:33;6.47;;;4.00;;
7074;SDS011;3578;51.568;6.932;2022-12-20T05:29:02;4.37;;;4.07;;
7074;SDS011;3578;51.568;6.932;2022-12-20T05:31:30;4.63;;;4.20;;
7074;SDS011;3578;51.568;6.932;2022-12-20T05:33:58;6.10;;;5.00;;
7074;SDS011;3578;51.568;6.932;2022-12-20T05:36:25;4.77;;;4.27;;
7074;SDS011;3578;51.568;6.932;2022-12-20T05:38:53;10.77;;;4.80;;
7074;SDS011;3578;51.568;6.932;2022-12-20T05:41:20;5.80;;;4.70;;
7074;SDS011;3578;51.568;6.932;2022-12-20T05:43:47;5.10;;;4.30;;
7074;SDS011;3578;51.568;6.932;2022-12-20T05:46:13;6.87;;;4.13;;
7074;SDS011;3578;51.568;6.932;2022-12-20T05:48:40;6.23;;;4.33;;
7074;SDS011;3578;51.568;6.932;2022-12-20T05:51:09;4.77;;;4.30;;
7074;SDS011;3578;51.568;6.932;2022-12-20T05:53:36;9.53;;;4.53;;
7074;SDS011;3578;51.568;6.932;2022-12-20T05:56:03;5.60;;;4.10;;
7074;SDS011;3578;51.568;6.932;2022-12-20T05:58:30;4.30;;;3.73;;
7074;SDS011;3578;51.568;6.932;2022-12-20T06:00:59;3.87;;;3.57;;
7074;SDS011;3578;51.568;6.932;2022-12-20T06:03:26;4.03;;;3.63;;
7074;SDS011;3578;51.568;6.932;2022-12-20T06:05:53;4.23;;;3.90;;
7074;SDS011;3578;51.568;6.932;2022-12-20T06:08:22;3.93;;;3.73;;
7074;SDS011;3578;51.568;6.932;2022-12-20T06:10:49;4.83;;;4.00;;
7074;SDS011;3578;51.568;6.932;2022-12-20T06:13:16;4.03;;;3.63;;
7074;SDS011;3578;51.568;6.932;2022-12-20T06:15:43;5.70;;;3.67;;
7074;SDS011;3578;51.568;6.932;2022-12-20T06:18:10;7.20;;;4.60;;
7074;SDS011;3578;51.568;6.932;2022-12-20T06:20:38;5.60;;;3.53;;
7074;SDS011;3578;51.568;6.932;2022-12-20T06:23:05;5.13;;;4.17;;
7074;SDS011;3578;51.568;6.932;2022-12-20T06:25:35;7.13;;;3.83;;
7074;SDS011;3578;51.568;6.932;2022-12-20T06:28:03;3.77;;;3.27;;
7074;SDS011;3578;51.568;6.932;2022-12-20T06:30:31;4.10;;;3.57;;
7074;SDS011;3578;51.568;6.932;2022-12-20T06:32:59;3.27;;;2.93;;
7074;SDS011;3578;51.568;6.932;2022-12-20T06:35:26;3.40;;;3.17;;
7074;SDS011;3578;51.568;6.932;2022-12-20T06:37:53;3.10;;;3.00;;
7074;SDS011;3578;51.568;6.932;2022-12-20T06:40:20;3.60;;;3.30;;
7074;SDS011;3578;51.568;6.932;2022-12-20T06:42:48;5.33;;;4.00;;
7074;SDS011;3578;51.568;6.932;2022-12-20T06:45:15;3.07;;;2.87;;
7074;SDS011;3578;51.568;6.932;2022-12-20T06:47:43;3.23;;;2.87;;
7074;SDS011;3578;51.568;6.932;2022-12-20T06:50:11;3.80;;;3.47;;
7074;SDS011;3578;51.568;6.932;2022-12-20T06:52:38;2.97;;;2.77;;
7074;SDS011;3578;51.568;6.932;2022-12-20T06:55:05;3.23;;;2.93;;
7074;SDS011;3578;51.568;6.932;2022-12-20T06:57:32;4.10;;;3.00;;
7074;SDS011;3578;51.568;6.932;2022-12-20T07:00:01;4.00;;;3.10;;
7074;SDS011;3578;51.568;6.932;2022-12-20T07:02:29;3.40;;;3.10;;
7074;SDS011;3578;51.568;6.932;2022-12-20T07:04:56;6.93;;;3.47;;
7074;SDS011;3578;51.568;6.932;2022-12-20T07:07:23;4.40;;;2.90;;
7074;SDS011;3578;51.568;6.932;2022-12-20T07:09:50;3.63;;;3.00;;
7074;SDS011;3578;51.568;6.932;2022-12-20T07:12:17;3.13;;;2.90;;
7074;SDS011;3578;51.568;6.932;2022-12-20T07:14:44;3.80;;;2.97;;
7074;SDS011;3578;51.568;6.932;2022-12-20T07:17:12;4.23;;;2.87;;
7074;SDS011;3578;51.568;6.932;2022-12-20T07:19:40;3.00;;;2.80;;
7074;SDS011;3578;51.568;6.932;2022-12-20T07:22:08;4.43;;;3.30;;
7074;SDS011;3578;51.568;6.932;2022-12-20T07:24:35;3.83;;;3.37;;
7074;SDS011;3578;51.568;6.932;2022-12-20T07:27:02;3.27;;;3.03;;
7074;SDS011;3578;51.568;6.932;2022-12-20T07:29:29;5.03;;;3.13;;
7074;SDS011;3578;51.568;6.932;2022-12-20T07:31:56;2.47;;;2.37;;
7074;SDS011;3578;51.568;6.932;2022-12-20T07:34:24;3.93;;;3.03;;
7074;SDS011;3578;51.568;6.932;2022-12-20T07:36:51;3.27;;;3.00;;
7074;SDS011;3578;51.568;6.932;2022-12-20T07:39:18;2.87;;;2.67;;
7074;SDS011;3578;51.568;6.932;2022-12-20T07:41:45;3.30;;;3.00;;
7074;SDS011;3578;51.568;6.932;2022-12-20T07:44:12;3.00;;;2.83;;
7074;SDS011;3578;51.568;6.932;2022-12-20T07:46:39;2.90;;;2.50;;
7074;SDS011;3578;51.568;6.932;2022-12-20T07:49:06;3.40;;;2.70;;
7074;SDS011;3578;51.568;6.932;2022-12-20T07:51:36;3.43;;;3.13;;
7074;SDS011;3578;51.568;6.932;2022-12-20T07:54:08;2.80;;;2.60;;
7074;SDS011;3578;51.568;6.932;2022-12-20T07:56:40;2.90;;;2.70;;
7074;SDS011;3578;51.568;6.932;2022-12-20T07:59:12;4.63;;;2.53;;
7074;SDS011;3578;51.568;6.932;2022-12-20T08:01:44;2.83;;;2.73;;
7074;SDS011;3578;51.568;6.932;2022-12-20T08:04:13;4.83;;;2.90;;
7074;SDS011;3578;51.568;6.932;2022-12-20T08:06:46;2.60;;;2.50;;
7074;SDS011;3578;51.568;6.932;2022-12-20T08:09:14;3.90;;;3.10;;
7074;SDS011;3578;51.568;6.932;2022-12-20T08:11:42;4.70;;;2.73;;
7074;SDS011;3578;51.568;6.932;2022-12-20T08:14:12;3.57;;;3.27;;
7074;SDS011;3578;51.568;6.932;2022-12-20T08:16:40;3.00;;;2.50;;
7074;SDS011;3578;51.568;6.932;2022-12-20T08:19:07;3.43;;;2.97;;
7074;SDS011;3578;51.568;6.932;2022-12-20T08:21:34;2.37;;;2.27;;
7074;SDS011;3578;51.568;6.932;2022-12-20T08:24:03;6.27;;;2.57;;
7074;SDS011;3578;51.568;6.932;2022-12-20T08:26:35;3.20;;;2.90;;
7074;SDS011;3578;51.568;6.932;2022-12-20T08:29:04;3.10;;;2.57;;
7074;SDS011;3578;51.568;6.932;2022-12-20T08:31:31;2.83;;;2.63;;
7074;SDS011;3578;51.568;6.932;2022-12-20T08:33:58;3.23;;;2.63;;
7074;SDS011;3578;51.568;6.932;2022-12-20T08:36:25;2.60;;;2.43;;
7074;SDS011;3578;51.568;6.932;2022-12-20T08:38:52;2.97;;;2.60;;
7074;SDS011;3578;51.568;6.932;2022-12-20T08:41:20;4.53;;;3.00;;
7074;SDS011;3578;51.568;6.932;2022-12-20T08:43:47;2.63;;;2.43;;
7074;SDS011;3578;51.568;6.932;2022-12-20T08:46:14;2.97;;;2.77;;
7074;SDS011;3578;51.568;6.932;2022-12-20T08:48:41;5.57;;;2.63;;
7074;SDS011;3578;51.568;6.932;2022-12-20T08:51:09;3.57;;;2.60;;
7074;SDS011;3578;51.568;6.932;2022-12-20T08:53:36;2.80;;;2.20;;
7074;SDS011;3578;51.568;6.932;2022-12-20T08:56:04;3.00;;;2.80;;
7074;SDS011;3578;51.568;6.932;2022-12-20T08:58:35;2.40;;;2.30;;
7074;SDS011;3578;51.568;6.932;2022-12-20T09:01:03;2.40;;;2.20;;
7074;SDS011;3578;51.568;6.932;2022-12-20T09:03:32;4.03;;;2.53;;
7074;SDS011;3578;51.568;6.932;2022-12-20T09:06:00;3.63;;;2.90;;
7074;SDS011;3578;51.568;6.932;2022-12-20T09:08:31;6.57;;;2.70;;
7074;SDS011;3578;51.568;6.932;2022-12-20T09:11:02;2.70;;;2.40;;
7074;SDS011;3578;51.568;6.932;2022-12-20T09:13:30;4.87;;;2.80;;
7074;SDS011;3578;51.568;6.932;2022-12-20T09:16:00;3.50;;;2.53;;
7074;SDS011;3578;51.568;6.932;2022-12-20T09:18:27;2.87;;;2.23;;
7074;SDS011;3578;51.568;6.932;2022-12-20T09:20:54;2.30;;;2.10;;
7074;SDS011;3578;51.568;6.932;2022-12-20T09:23:24;2.97;;;2.70;;
7074;SDS011;3578;51.568;6.932;2022-12-20T09:25:51;2.53;;;2.40;;
7074;SDS011;3578;51.568;6.932;2022-12-20T09:28:18;2.47;;;2.30;;
7074;SDS011;3578;51.568;6.932;2022-12-20T09:30:45;2.93;;;2.17;;
7074;SDS011;3578;51.568;6.932;2022-12-20T09:33:13;2.40;;;2.20;;
7074;SDS011;3578;51.568;6.932;2022-12-20T09:35:43;2.80;;;2.17;;
7074;SDS011;3578;51.568;6.932;2022-12-20T09:38:10;2.17;;;1.90;;
7074;SDS011;3578;51.568;6.932;2022-12-20T09:40:37;2.93;;;2.60;;
7074;SDS011;3578;51.568;6.932;2022-12-20T09:43:12;2.50;;;2.30;;
7074;SDS011;3578;51.568;6.932;2022-12-20T09:45:46;2.27;;;2.03;;
7074;SDS011;3578;51.568;6.932;2022-12-20T09:48:18;2.23;;;2.13;;
7074;SDS011;3578;51.568;6.932;2022-12-20T09:50:51;2.50;;;2.20;;
7074;SDS011;3578;51.568;6.932;2022-12-20T09:53:32;2.57;;;2.37;;
7074;SDS011;3578;51.568;6.932;2022-12-20T09:56:12;2.30;;;2.20;;
7074;SDS011;3578;51.568;6.932;2022-12-20T09:58:52;2.87;;;2.67;;
7074;SDS011;3578;51.568;6.932;2022-12-20T10:01:26;2.73;;;2.50;;
7074;SDS011;3578;51.568;6.932;2022-12-20T10:03:57;2.37;;;2.27;;
7074;SDS011;3578;51.568;6.932;2022-12-20T10:06:32;2.67;;;2.43;;
7074;SDS011;3578;51.568;6.932;2022-12-20T10:09:12;4.40;;;2.50;;
7074;SDS011;3578;51.568;6.932;2022-12-20T10:12:02;4.90;;;2.53;;
7074;SDS011;3578;51.568;6.932;2022-12-20T10:14:58;2.50;;;2.30;;
7074;SDS011;3578;51.568;6.932;2022-12-20T10:17:43;4.53;;;2.67;;
7074;SDS011;3578;51.568;6.932;2022-12-20T10:20:28;4.10;;;2.40;;
7074;SDS011;3578;51.568;6.932;2022-12-20T10:23:08;2.13;;;2.00;;
7074;SDS011;3578;51.568;6.932;2022-12-20T10:25:42;8.50;;;2.63;;
7074;SDS011;3578;51.568;6.932;2022-12-20T10:28:10;4.43;;;2.60;;
7074;SDS011;3578;51.568;6.932;2022-12-20T10:30:41;3.37;;;2.57;;
7074;SDS011;3578;51.568;6.932;2022-12-20T10:33:12;5.00;;;3.00;;
7074;SDS011;3578;51.568;6.932;2022-12-20T10:35:46;2.80;;;2.20;;
7074;SDS011;3578;51.568;6.932;2022-12-20T10:38:14;2.23;;;2.13;;
7074;SDS011;3578;51.568;6.932;2022-12-20T10:40:43;2.93;;;2.67;;
7074;SDS011;3578;51.568;6.932;2022-12-20T10:43:15;4.00;;;2.70;;
7074;SDS011;3578;51.568;6.932;2022-12-20T10:45:53;3.33;;;3.03;;
7074;SDS011;3578;51.568;6.932;2022-12-20T10:48:33;2.53;;;2.33;;
7074;SDS011;3578;51.568;6.932;2022-12-20T10:51:12;2.80;;;2.60;;
7074;SDS011;3578;51.568;6.932;2022-12-20T10:53:49;2.40;;;2.30;;
7074;SDS011;3578;51.568;6.932;2022-12-20T10:56:19;2.40;;;2.30;;
7074;SDS011;3578;51.568;6.932;2022-12-20T10:58:52;4.20;;;2.80;;
7074;SDS011;3578;51.568;6.932;2022-12-20T11:01:23;3.57;;;2.40;;
7074;SDS011;3578;51.568;6.932;2022-12-20T11:03:55;2.67;;;2.47;;
7074;SDS011;3578;51.568;6.932;2022-12-20T11:06:28;2.77;;;2.57;;
7074;SDS011;3578;51.568;6.932;2022-12-20T11:09:22;2.60;;;2.30;;
7074;SDS011;3578;51.568;6.932;2022-12-20T11:11:56;2.23;;;2.07;;
7074;SDS011;3578;51.568;6.932;2022-12-20T11:14:26;6.87;;;3.40;;
7074;SDS011;3578;51.568;6.932;2022-12-20T11:16:54;3.17;;;2.57;;
7074;SDS011;3578;51.568;6.932;2022-12-20T11:19:35;3.00;;;2.40;;
7074;SDS011;3578;51.568;6.932;2022-12-20T11:22:21;3.17;;;2.30;;
7074;SDS011;3578;51.568;6.932;2022-12-20T11:25:03;2.97;;;2.47;;
7074;SDS011;3578;51.568;6.932;2022-12-20T11:27:48;3.43;;;2.60;;
7074;SDS011;3578;51.568;6.932;2022-12-20T11:30:24;2.20;;;2.10;;
7074;SDS011;3578;51.568;6.932;2022-12-20T11:33:09;3.43;;;2.20;;
7074;SDS011;3578;51.568;6.932;2022-12-20T11:36:04;3.73;;;2.57;;
7074;SDS011;3578;51.568;6.932;2022-12-20T11:38:41;2.73;;;2.07;;
7074;SDS011;3578;51.568;6.932;2022-12-20T11:41:15;2.67;;;2.43;;
7074;SDS011;3578;51.568;6.932;2022-12-20T11:43:54;3.00;;;2.20;;
7074;SDS011;3578;51.568;6.932;2022-12-20T11:46:36;2.87;;;2.10;;
7074;SDS011;3578;51.568;6.932;2022-12-20T11:49:22;3.47;;;2.30;;
7074;SDS011;3578;51.568;6.932;2022-12-20T11:52:19;3.13;;;2.47;;
7074;SDS011;3578;51.568;6.932;2022-12-20T11:55:01;2.80;;;2.37;;
7074;SDS011;3578;51.568;6.932;2022-12-20T11:57:34;2.40;;;2.20;;
7074;SDS011;3578;51.568;6.932;2022-12-20T12:00:12;2.50;;;2.30;;
7074;SDS011;3578;51.568;6.932;2022-12-20T12:02:42;5.17;;;2.60;;
7074;SDS011;3578;51.568;6.932;2022-12-20T12:05:15;3.23;;;2.43;;
7074;SDS011;3578;51.568;6.932;2022-12-20T12:07:50;4.50;;;2.90;;
7074;SDS011;3578;51.568;6.932;2022-12-20T12:10:24;5.83;;;2.80;;
7074;SDS011;3578;51.568;6.932;2022-12-20T12:12:56;4.03;;;2.37;;
7074;SDS011;3578;51.568;6.932;2022-12-20T12:15:31;2.67;;;2.27;;
7074;SDS011;3578;51.568;6.932;2022-12-20T12:18:04;3.83;;;2.33;;
7074;SDS011;3578;51.568;6.932;2022-12-20T12:20:39;4.70;;;2.20;;
7074;SDS011;3578;51.568;6.932;2022-12-20T12:23:18;6.73;;;2.63;;
7074;SDS011;3578;51.568;6.932;2022-12-20T12:25:52;4.53;;;2.50;;
7074;SDS011;3578;51.568;6.932;2022-12-20T12:28:19;2.37;;;2.00;;
7074;SDS011;3578;51.568;6.932;2022-12-20T12:30:51;2.57;;;2.40;;
7074;SDS011;3578;51.568;6.932;2022-12-20T12:33:24;5.97;;;2.63;;
7074;SDS011;3578;51.568;6.932;2022-12-20T12:39:18;2.90;;;2.63;;
7074;SDS011;3578;51.568;6.932;2022-12-20T12:42:36;4.53;;;2.13;;
7074;SDS011;3578;51.568;6.932;2022-12-20T12:45:28;2.10;;;2.00;;
7074;SDS011;3578;51.568;6.932;2022-12-20T12:48:01;5.50;;;2.53;;
7074;SDS011;3578;51.568;6.932;2022-12-20T12:50:34;3.87;;;2.30;;
7074;SDS011;3578;51.568;6.932;2022-12-20T12:53:11;3.87;;;2.53;;
7074;SDS011;3578;51.568;6.932;2022-12-20T12:55:43;2.17;;;2.03;;
7074;SDS011;3578;51.568;6.932;2022-12-20T13:01:00;4.50;;;2.97;;
7074;SDS011;3578;51.568;6.932;2022-12-20T13:03:37;2.70;;;2.50;;
7074;SDS011;3578;51.568;6.932;2022-12-20T13:09:51;4.00;;;2.80;;
7074;SDS011;3578;51.568;6.932;2022-12-20T13:18:29;5.17;;;3.03;;
7074;SDS011;3578;51.568;6.932;2022-12-20T13:27:26;5.87;;;4.13;;
7074;SDS011;3578;51.568;6.932;2022-12-20T13:32:57;7.33;;;4.40;;
7074;SDS011;3578;51.568;6.932;2022-12-20T13:35:59;4.00;;;3.70;;
7074;SDS011;3578;51.568;6.932;2022-12-20T13:38:48;5.73;;;3.87;;
7074;SDS011;3578;51.568;6.932;2022-12-20T13:41:26;6.60;;;4.00;;
7074;SDS011;3578;51.568;6.932;2022-12-20T13:44:29;9.20;;;4.57;;
7074;SDS011;3578;51.568;6.932;2022-12-20T13:50:20;7.17;;;4.57;;
7074;SDS011;3578;51.568;6.932;2022-12-20T13:52:59;10.53;;;5.03;;
7074;SDS011;3578;51.568;6.932;2022-12-20T13:55:32;9.07;;;4.97;;
7074;SDS011;3578;51.568;6.932;2022-12-20T13:58:03;7.20;;;5.17;;
7074;SDS011;3578;51.568;6.932;2022-12-20T14:00:35;10.70;;;5.50;;
7074;SDS011;3578;51.568;6.932;2022-12-20T14:03:02;14.40;;;6.50;;
7074;SDS011;3578;51.568;6.932;2022-12-20T14:05:35;14.80;;;6.20;;
7074;SDS011;3578;51.568;6.932;2022-12-20T14:08:04;11.90;;;6.30;;
7074;SDS011;3578;51.568;6.932;2022-12-20T14:10:34;7.63;;;6.80;;
7074;SDS011;3578;51.568;6.932;2022-12-20T14:13:02;10.57;;;6.77;;
7074;SDS011;3578;51.568;6.932;2022-12-20T14:15:43;13.27;;;6.80;;
7074;SDS011;3578;51.568;6.932;2022-12-20T14:18:15;8.47;;;6.37;;
7074;SDS011;3578;51.568;6.932;2022-12-20T14:20:46;12.67;;;7.00;;
7074;SDS011;3578;51.568;6.932;2022-12-20T14:23:18;9.93;;;6.70;;
7074;SDS011;3578;51.568;6.932;2022-12-20T14:25:48;12.30;;;7.07;;
7074;SDS011;3578;51.568;6.932;2022-12-20T14:28:26;10.23;;;5.60;;
7074;SDS011;3578;51.568;6.932;2022-12-20T14:30:59;6.00;;;5.13;;
7074;SDS011;3578;51.568;6.932;2022-12-20T14:33:28;9.63;;;5.40;;
7074;SDS011;3578;51.568;6.932;2022-12-20T14:36:08;7.30;;;5.70;;
7074;SDS011;3578;51.568;6.932;2022-12-20T14:38:43;6.30;;;5.70;;
7074;SDS011;3578;51.568;6.932;2022-12-20T14:41:28;6.93;;;5.57;;
7074;SDS011;3578;51.568;6.932;2022-12-20T14:44:00;7.50;;;6.40;;
7074;SDS011;3578;51.568;6.932;2022-12-20T14:46:38;7.90;;;6.93;;
7074;SDS011;3578;51.568;6.932;2022-12-20T14:49:16;9.50;;;6.00;;
7074;SDS011;3578;51.568;6.932;2022-12-20T14:51:49;13.53;;;7.80;;
7074;SDS011;3578;51.568;6.932;2022-12-20T14:54:17;8.93;;;6.77;;
7074;SDS011;3578;51.568;6.932;2022-12-20T14:56:46;8.17;;;6.63;;
7074;SDS011;3578;51.568;6.932;2022-12-20T14:59:16;11.30;;;6.17;;
7074;SDS011;3578;51.568;6.932;2022-12-20T15:01:49;7.43;;;6.43;;
7074;SDS011;3578;51.568;6.932;2022-12-20T15:04:24;8.53;;;5.93;;
7074;SDS011;3578;51.568;6.932;2022-12-20T15:06:59;7.00;;;5.57;;
7074;SDS011;3578;51.568;6.932;2022-12-20T15:09:27;9.37;;;7.00;;
7074;SDS011;3578;51.568;6.932;2022-12-20T15:11:54;12.13;;;7.30;;
7074;SDS011;3578;51.568;6.932;2022-12-20T15:14:32;8.10;;;7.37;;
7074;SDS011;3578;51.568;6.932;2022-12-20T15:17:03;8.00;;;7.13;;
7074;SDS011;3578;51.568;6.932;2022-12-20T15:19:35;10.83;;;7.20;;
7074;SDS011;3578;51.568;6.932;2022-12-20T15:22:04;9.73;;;6.90;;
7074;SDS011;3578;51.568;6.932;2022-12-20T15:24:31;12.10;;;7.50;;
7074;SDS011;3578;51.568;6.932;2022-12-20T15:26:58;11.30;;;7.00;;
7074;SDS011;3578;51.568;6.932;2022-12-20T15:29:26;10.23;;;7.90;;
7074;SDS011;3578;51.568;6.932;2022-12-20T15:31:57;8.13;;;7.27;;
7074;SDS011;3578;51.568;6.932;2022-12-20T15:34:29;10.87;;;6.87;;
7074;SDS011;3578;51.568;6.932;2022-12-20T15:36:59;9.83;;;7.07;;
7074;SDS011;3578;51.568;6.932;2022-12-20T15:39:28;20.03;;;7.60;;
7074;SDS011;3578;51.568;6.932;2022-12-20T15:41:55;10.07;;;6.77;;
7074;SDS011;3578;51.568;6.932;2022-12-20T15:44:26;13.10;;;7.30;;
7074;SDS011;3578;51.568;6.932;2022-12-20T15:46:56;7.77;;;6.07;;
7074;SDS011;3578;51.568;6.932;2022-12-20T15:49:23;13.43;;;8.00;;
7074;SDS011;3578;51.568;6.932;2022-12-20T15:51:53;7.20;;;6.33;;
7074;SDS011;3578;51.568;6.932;2022-12-20T15:54:21;15.70;;;7.67;;
7074;SDS011;3578;51.568;6.932;2022-12-20T15:56:52;13.60;;;7.43;;
7074;SDS011;3578;51.568;6.932;2022-12-20T15:59:20;9.13;;;6.90;;
7074;SDS011;3578;51.568;6.932;2022-12-20T16:01:47;7.50;;;6.77;;
7074;SDS011;3578;51.568;6.932;2022-12-20T16:04:15;11.47;;;6.63;;
7074;SDS011;3578;51.568;6.932;2022-12-20T16:06:46;7.37;;;6.67;;
7074;SDS011;3578;51.568;6.932;2022-12-20T16:09:17;10.03;;;6.57;;
7074;SDS011;3578;51.568;6.932;2022-12-20T16:11:45;10.60;;;7.70;;
7074;SDS011;3578;51.568;6.932;2022-12-20T16:14:15;8.03;;;6.90;;